sensor_id;sensor_type;location;lat;lon;timestamp;P1;durP1;ratioP1;P2;durP2;ratioP2
11616;SDS011;5864;52.998;9.068;2024-03-25T00:00:16;7.77;;;2.50;;
11616;SDS011;5864;52.998;9.068;2024-03-25T00:02:43;4.07;;;2.00;;
11616;SDS011;5864;52.998;9.068;2024-03-25T00:05:10;7.70;;;2.33;;
11616;SDS011;5864;52.998;9.068;2024-03-25T00:07:39;4.07;;;2.27;;
11616;SDS011;5864;52.998;9.068;2024-03-25T00:10:08;7.07;;;2.50;;
11616;SDS011;5864;52.998;9.068;2024-03-25T00:12:35;6.90;;;2.60;;
11616;SDS011;5864;52.998;9.068;2024-03-25T00:15:01;7.17;;;2.27;;
11616;SDS011;5864;52.998;9.068;2024-03-25T00:17:28;3.20;;;2.10;;
11616;SDS011;5864;52.998;9.068;2024-03-25T00:19:54;7.93;;;2.00;;
11616;SDS011;5864;52.998;9.068;2024-03-25T00:22:21;6.60;;;2.50;;
11616;SDS011;5864;52.998;9.068;2024-03-25T00:24:50;4.23;;;2.00;;
11616;SDS011;5864;52.998;9.068;2024-03-25T00:27:18;3.87;;;1.90;;
11616;SDS011;5864;52.998;9.068;2024-03-25T00:29:44;7.27;;;2.23;;
11616;SDS011;5864;52.998;9.068;2024-03-25T00:32:12;4.00;;;2.00;;
11616;SDS011;5864;52.998;9.068;2024-03-25T00:34:38;5.53;;;1.80;;
11616;SDS011;5864;52.998;9.068;2024-03-25T00:37:05;7.83;;;2.00;;
11616;SDS011;5864;52.998;9.068;2024-03-25T00:39:31;6.60;;;2.50;;
11616;SDS011;5864;52.998;9.068;2024-03-25T00:41:59;6.67;;;2.40;;
11616;SDS011;5864;52.998;9.068;2024-03-25T00:44:27;6.53;;;1.97;;
11616;SDS011;5864;52.998;9.068;2024-03-25T00:46:54;4.03;;;1.70;;
11616;SDS011;5864;52.998;9.068;2024-03-25T00:50:52;4.50;;;2.00;;
11616;SDS011;5864;52.998;9.068;2024-03-25T00:53:19;5.67;;;2.40;;
11616;SDS011;5864;52.998;9.068;2024-03-25T00:55:45;7.63;;;2.73;;
11616;SDS011;5864;52.998;9.068;2024-03-25T00:58:12;6.53;;;1.97;;
11616;SDS011;5864;52.998;9.068;2024-03-25T01:00:38;4.93;;;1.80;;
11616;SDS011;5864;52.998;9.068;2024-03-25T01:03:05;4.20;;;2.00;;
11616;SDS011;5864;52.998;9.068;2024-03-25T01:05:31;5.80;;;2.30;;
11616;SDS011;5864;52.998;9.068;2024-03-25T01:07:59;3.87;;;2.43;;
11616;SDS011;5864;52.998;9.068;2024-03-25T01:10:25;5.57;;;2.37;;
11616;SDS011;5864;52.998;9.068;2024-03-25T01:12:52;4.27;;;2.10;;
11616;SDS011;5864;52.998;9.068;2024-03-25T01:15:18;4.83;;;2.20;;
11616;SDS011;5864;52.998;9.068;2024-03-25T01:17:45;4.90;;;2.13;;
11616;SDS011;5864;52.998;9.068;2024-03-25T01:20:11;3.37;;;2.17;;
11616;SDS011;5864;52.998;9.068;2024-03-25T01:22:38;5.33;;;2.17;;
11616;SDS011;5864;52.998;9.068;2024-03-25T01:25:06;6.97;;;2.50;;
11616;SDS011;5864;52.998;9.068;2024-03-25T01:27:33;3.50;;;2.20;;
11616;SDS011;5864;52.998;9.068;2024-03-25T01:29:59;3.40;;;2.23;;
11616;SDS011;5864;52.998;9.068;2024-03-25T01:32:29;5.60;;;2.27;;
11616;SDS011;5864;52.998;9.068;2024-03-25T01:34:55;3.40;;;2.30;;
11616;SDS011;5864;52.998;9.068;2024-03-25T01:37:22;7.47;;;2.60;;
11616;SDS011;5864;52.998;9.068;2024-03-25T01:39:48;3.20;;;2.20;;
11616;SDS011;5864;52.998;9.068;2024-03-25T01:42:17;5.60;;;2.20;;
11616;SDS011;5864;52.998;9.068;2024-03-25T01:44:43;8.97;;;2.30;;
11616;SDS011;5864;52.998;9.068;2024-03-25T01:47:12;5.23;;;2.20;;
11616;SDS011;5864;52.998;9.068;2024-03-25T01:49:38;6.07;;;2.97;;
11616;SDS011;5864;52.998;9.068;2024-03-25T01:52:05;6.07;;;2.40;;
11616;SDS011;5864;52.998;9.068;2024-03-25T01:54:31;10.13;;;2.70;;
11616;SDS011;5864;52.998;9.068;2024-03-25T01:56:59;4.63;;;1.90;;
11616;SDS011;5864;52.998;9.068;2024-03-25T01:59:27;3.50;;;2.40;;
11616;SDS011;5864;52.998;9.068;2024-03-25T02:01:54;2.93;;;1.83;;
11616;SDS011;5864;52.998;9.068;2024-03-25T02:04:21;6.43;;;2.20;;
11616;SDS011;5864;52.998;9.068;2024-03-25T02:06:48;7.57;;;2.00;;
11616;SDS011;5864;52.998;9.068;2024-03-25T02:09:14;5.17;;;2.00;;
11616;SDS011;5864;52.998;9.068;2024-03-25T02:11:42;2.97;;;1.70;;
11616;SDS011;5864;52.998;9.068;2024-03-25T02:14:08;2.93;;;2.10;;
11616;SDS011;5864;52.998;9.068;2024-03-25T02:16:37;6.03;;;2.40;;
11616;SDS011;5864;52.998;9.068;2024-03-25T02:19:03;10.40;;;3.10;;
11616;SDS011;5864;52.998;9.068;2024-03-25T02:21:31;6.07;;;2.40;;
11616;SDS011;5864;52.998;9.068;2024-03-25T02:23:57;4.53;;;2.80;;
11616;SDS011;5864;52.998;9.068;2024-03-25T02:26:27;4.47;;;2.30;;
11616;SDS011;5864;52.998;9.068;2024-03-25T02:28:53;5.10;;;2.17;;
11616;SDS011;5864;52.998;9.068;2024-03-25T02:31:21;5.43;;;2.77;;
11616;SDS011;5864;52.998;9.068;2024-03-25T02:33:47;4.30;;;2.33;;
11616;SDS011;5864;52.998;9.068;2024-03-25T02:36:14;5.80;;;2.83;;
11616;SDS011;5864;52.998;9.068;2024-03-25T02:38:40;6.03;;;2.53;;
11616;SDS011;5864;52.998;9.068;2024-03-25T02:41:07;6.03;;;2.00;;
11616;SDS011;5864;52.998;9.068;2024-03-25T02:43:35;7.50;;;2.70;;
11616;SDS011;5864;52.998;9.068;2024-03-25T02:46:02;7.20;;;2.40;;
11616;SDS011;5864;52.998;9.068;2024-03-25T02:48:28;10.07;;;2.90;;
11616;SDS011;5864;52.998;9.068;2024-03-25T02:50:55;7.37;;;2.37;;
11616;SDS011;5864;52.998;9.068;2024-03-25T02:53:21;7.50;;;2.27;;
11616;SDS011;5864;52.998;9.068;2024-03-25T02:55:48;6.37;;;2.20;;
11616;SDS011;5864;52.998;9.068;2024-03-25T02:58:14;6.50;;;2.70;;
11616;SDS011;5864;52.998;9.068;2024-03-25T03:00:43;5.80;;;2.30;;
11616;SDS011;5864;52.998;9.068;2024-03-25T03:03:09;7.10;;;2.63;;
11616;SDS011;5864;52.998;9.068;2024-03-25T03:05:36;6.70;;;2.37;;
11616;SDS011;5864;52.998;9.068;2024-03-25T03:08:02;4.63;;;2.37;;
11616;SDS011;5864;52.998;9.068;2024-03-25T03:10:29;6.77;;;2.50;;
11616;SDS011;5864;52.998;9.068;2024-03-25T03:12:55;5.37;;;2.67;;
11616;SDS011;5864;52.998;9.068;2024-03-25T03:15:22;7.93;;;2.80;;
11616;SDS011;5864;52.998;9.068;2024-03-25T03:17:49;5.83;;;2.63;;
11616;SDS011;5864;52.998;9.068;2024-03-25T03:20:16;8.00;;;2.57;;
11616;SDS011;5864;52.998;9.068;2024-03-25T03:22:42;6.37;;;2.47;;
11616;SDS011;5864;52.998;9.068;2024-03-25T03:25:09;5.13;;;2.20;;
11616;SDS011;5864;52.998;9.068;2024-03-25T03:27:35;5.27;;;2.20;;
11616;SDS011;5864;52.998;9.068;2024-03-25T03:30:02;6.97;;;2.30;;
11616;SDS011;5864;52.998;9.068;2024-03-25T03:32:29;4.77;;;2.10;;
11616;SDS011;5864;52.998;9.068;2024-03-25T03:34:57;11.20;;;2.90;;
11616;SDS011;5864;52.998;9.068;2024-03-25T03:37:23;4.80;;;2.17;;
11616;SDS011;5864;52.998;9.068;2024-03-25T03:39:51;3.07;;;2.00;;
11616;SDS011;5864;52.998;9.068;2024-03-25T03:42:17;3.83;;;2.33;;
11616;SDS011;5864;52.998;9.068;2024-03-25T03:44:44;5.57;;;2.00;;
11616;SDS011;5864;52.998;9.068;2024-03-25T03:47:10;5.27;;;2.33;;
11616;SDS011;5864;52.998;9.068;2024-03-25T03:49:37;5.37;;;2.27;;
11616;SDS011;5864;52.998;9.068;2024-03-25T03:52:04;8.23;;;2.27;;
11616;SDS011;5864;52.998;9.068;2024-03-25T03:54:32;7.30;;;2.80;;
11616;SDS011;5864;52.998;9.068;2024-03-25T03:56:58;4.73;;;2.10;;
11616;SDS011;5864;52.998;9.068;2024-03-25T03:59:25;7.37;;;2.60;;
11616;SDS011;5864;52.998;9.068;2024-03-25T04:01:52;6.50;;;2.27;;
11616;SDS011;5864;52.998;9.068;2024-03-25T04:04:19;4.00;;;2.40;;
11616;SDS011;5864;52.998;9.068;2024-03-25T04:06:44;6.60;;;2.43;;
11616;SDS011;5864;52.998;9.068;2024-03-25T04:09:13;6.33;;;2.57;;
11616;SDS011;5864;52.998;9.068;2024-03-25T04:11:39;5.23;;;2.20;;
11616;SDS011;5864;52.998;9.068;2024-03-25T04:14:06;7.30;;;2.80;;
11616;SDS011;5864;52.998;9.068;2024-03-25T04:16:33;7.40;;;2.30;;
11616;SDS011;5864;52.998;9.068;2024-03-25T04:19:00;7.43;;;2.33;;
11616;SDS011;5864;52.998;9.068;2024-03-25T04:21:26;6.67;;;2.90;;
11616;SDS011;5864;52.998;9.068;2024-03-25T04:23:53;9.70;;;2.83;;
11616;SDS011;5864;52.998;9.068;2024-03-25T04:26:21;5.90;;;2.23;;
11616;SDS011;5864;52.998;9.068;2024-03-25T04:28:48;6.23;;;2.80;;
11616;SDS011;5864;52.998;9.068;2024-03-25T04:31:14;5.90;;;3.23;;
11616;SDS011;5864;52.998;9.068;2024-03-25T04:33:41;7.77;;;2.80;;
11616;SDS011;5864;52.998;9.068;2024-03-25T04:36:07;5.10;;;2.30;;
11616;SDS011;5864;52.998;9.068;2024-03-25T04:38:34;10.60;;;3.67;;
11616;SDS011;5864;52.998;9.068;2024-03-25T04:41:00;8.37;;;2.70;;
11616;SDS011;5864;52.998;9.068;2024-03-25T04:43:28;7.40;;;3.73;;
11616;SDS011;5864;52.998;9.068;2024-03-25T04:45:54;8.90;;;3.43;;
11616;SDS011;5864;52.998;9.068;2024-03-25T04:48:20;4.77;;;2.47;;
11616;SDS011;5864;52.998;9.068;2024-03-25T04:50:47;9.30;;;3.00;;
11616;SDS011;5864;52.998;9.068;2024-03-25T04:53:13;14.07;;;3.60;;
11616;SDS011;5864;52.998;9.068;2024-03-25T04:55:39;11.97;;;3.33;;
11616;SDS011;5864;52.998;9.068;2024-03-25T04:58:05;9.20;;;3.77;;
11616;SDS011;5864;52.998;9.068;2024-03-25T05:00:32;11.40;;;4.73;;
11616;SDS011;5864;52.998;9.068;2024-03-25T05:02:58;7.53;;;3.53;;
11616;SDS011;5864;52.998;9.068;2024-03-25T05:05:24;10.40;;;3.57;;
11616;SDS011;5864;52.998;9.068;2024-03-25T05:07:50;11.33;;;4.07;;
11616;SDS011;5864;52.998;9.068;2024-03-25T05:10:16;7.00;;;3.47;;
11616;SDS011;5864;52.998;9.068;2024-03-25T05:12:43;10.73;;;3.60;;
11616;SDS011;5864;52.998;9.068;2024-03-25T05:15:09;9.90;;;3.63;;
11616;SDS011;5864;52.998;9.068;2024-03-25T05:17:37;10.07;;;3.73;;
11616;SDS011;5864;52.998;9.068;2024-03-25T05:20:03;11.67;;;4.10;;
11616;SDS011;5864;52.998;9.068;2024-03-25T05:22:30;9.37;;;3.53;;
11616;SDS011;5864;52.998;9.068;2024-03-25T05:24:56;7.23;;;3.43;;
11616;SDS011;5864;52.998;9.068;2024-03-25T05:27:22;9.80;;;4.17;;
11616;SDS011;5864;52.998;9.068;2024-03-25T05:29:48;10.80;;;3.30;;
11616;SDS011;5864;52.998;9.068;2024-03-25T05:32:14;10.87;;;3.00;;
11616;SDS011;5864;52.998;9.068;2024-03-25T05:34:42;12.03;;;3.30;;
11616;SDS011;5864;52.998;9.068;2024-03-25T05:37:08;9.07;;;3.20;;
11616;SDS011;5864;52.998;9.068;2024-03-25T05:39:34;11.40;;;3.50;;
11616;SDS011;5864;52.998;9.068;2024-03-25T05:42:00;11.93;;;4.07;;
11616;SDS011;5864;52.998;9.068;2024-03-25T05:44:27;9.67;;;3.20;;
11616;SDS011;5864;52.998;9.068;2024-03-25T05:46:53;12.73;;;3.87;;
11616;SDS011;5864;52.998;9.068;2024-03-25T05:49:19;10.40;;;3.43;;
11616;SDS011;5864;52.998;9.068;2024-03-25T05:51:46;13.87;;;3.37;;
11616;SDS011;5864;52.998;9.068;2024-03-25T05:54:13;13.67;;;3.67;;
11616;SDS011;5864;52.998;9.068;2024-03-25T05:56:39;9.63;;;3.20;;
11616;SDS011;5864;52.998;9.068;2024-03-25T05:59:05;14.97;;;2.97;;
11616;SDS011;5864;52.998;9.068;2024-03-25T06:01:31;6.60;;;2.50;;
11616;SDS011;5864;52.998;9.068;2024-03-25T06:03:58;12.47;;;3.07;;
11616;SDS011;5864;52.998;9.068;2024-03-25T06:06:24;9.17;;;2.97;;
11616;SDS011;5864;52.998;9.068;2024-03-25T06:08:51;13.23;;;3.10;;
11616;SDS011;5864;52.998;9.068;2024-03-25T06:11:17;13.43;;;2.97;;
11616;SDS011;5864;52.998;9.068;2024-03-25T06:13:45;13.53;;;2.80;;
11616;SDS011;5864;52.998;9.068;2024-03-25T06:16:11;13.50;;;3.40;;
11616;SDS011;5864;52.998;9.068;2024-03-25T06:18:38;11.57;;;3.00;;
11616;SDS011;5864;52.998;9.068;2024-03-25T06:21:04;9.00;;;3.10;;
11616;SDS011;5864;52.998;9.068;2024-03-25T06:23:30;9.17;;;2.77;;
11616;SDS011;5864;52.998;9.068;2024-03-25T06:25:57;12.30;;;2.73;;
11616;SDS011;5864;52.998;9.068;2024-03-25T06:28:23;12.57;;;3.70;;
11616;SDS011;5864;52.998;9.068;2024-03-25T06:30:50;12.00;;;3.10;;
11616;SDS011;5864;52.998;9.068;2024-03-25T06:33:35;10.93;;;2.73;;
11616;SDS011;5864;52.998;9.068;2024-03-25T06:36:20;8.57;;;2.90;;
11616;SDS011;5864;52.998;9.068;2024-03-25T06:38:48;9.27;;;3.07;;
11616;SDS011;5864;52.998;9.068;2024-03-25T06:41:15;11.10;;;3.37;;
11616;SDS011;5864;52.998;9.068;2024-03-25T06:43:41;12.93;;;3.10;;
11616;SDS011;5864;52.998;9.068;2024-03-25T06:46:08;11.27;;;3.47;;
11616;SDS011;5864;52.998;9.068;2024-03-25T06:48:34;10.20;;;3.27;;
11616;SDS011;5864;52.998;9.068;2024-03-25T06:51:00;13.37;;;2.80;;
11616;SDS011;5864;52.998;9.068;2024-03-25T06:53:28;10.83;;;2.83;;
11616;SDS011;5864;52.998;9.068;2024-03-25T06:55:54;14.03;;;3.57;;
11616;SDS011;5864;52.998;9.068;2024-03-25T06:58:24;11.47;;;3.37;;
11616;SDS011;5864;52.998;9.068;2024-03-25T07:00:51;18.57;;;3.07;;
11616;SDS011;5864;52.998;9.068;2024-03-25T07:03:18;12.20;;;3.43;;
11616;SDS011;5864;52.998;9.068;2024-03-25T07:05:45;11.83;;;3.03;;
11616;SDS011;5864;52.998;9.068;2024-03-25T07:08:11;12.87;;;3.00;;
11616;SDS011;5864;52.998;9.068;2024-03-25T07:10:38;12.53;;;3.70;;
11616;SDS011;5864;52.998;9.068;2024-03-25T07:13:07;13.30;;;3.03;;
11616;SDS011;5864;52.998;9.068;2024-03-25T07:15:36;11.37;;;3.43;;
11616;SDS011;5864;52.998;9.068;2024-03-25T07:18:03;11.40;;;3.30;;
11616;SDS011;5864;52.998;9.068;2024-03-25T07:20:29;11.23;;;3.50;;
11616;SDS011;5864;52.998;9.068;2024-03-25T07:22:56;12.47;;;3.30;;
11616;SDS011;5864;52.998;9.068;2024-03-25T07:25:22;16.97;;;3.23;;
11616;SDS011;5864;52.998;9.068;2024-03-25T07:27:48;15.03;;;3.97;;
11616;SDS011;5864;52.998;9.068;2024-03-25T07:30:15;11.23;;;2.80;;
11616;SDS011;5864;52.998;9.068;2024-03-25T07:32:42;10.83;;;3.10;;
11616;SDS011;5864;52.998;9.068;2024-03-25T07:35:09;11.60;;;2.97;;
11616;SDS011;5864;52.998;9.068;2024-03-25T07:37:35;10.60;;;3.00;;
11616;SDS011;5864;52.998;9.068;2024-03-25T07:40:02;11.93;;;2.93;;
11616;SDS011;5864;52.998;9.068;2024-03-25T07:42:28;9.20;;;3.40;;
11616;SDS011;5864;52.998;9.068;2024-03-25T07:44:54;12.73;;;3.20;;
11616;SDS011;5864;52.998;9.068;2024-03-25T07:47:20;8.60;;;3.30;;
11616;SDS011;5864;52.998;9.068;2024-03-25T07:49:48;11.23;;;3.20;;
11616;SDS011;5864;52.998;9.068;2024-03-25T07:52:14;10.10;;;3.53;;
11616;SDS011;5864;52.998;9.068;2024-03-25T07:54:40;9.80;;;3.10;;
11616;SDS011;5864;52.998;9.068;2024-03-25T07:57:06;10.10;;;3.10;;
11616;SDS011;5864;52.998;9.068;2024-03-25T07:59:32;13.13;;;4.13;;
11616;SDS011;5864;52.998;9.068;2024-03-25T08:01:58;10.47;;;3.10;;
11616;SDS011;5864;52.998;9.068;2024-03-25T08:04:25;9.83;;;2.90;;
11616;SDS011;5864;52.998;9.068;2024-03-25T08:06:52;12.13;;;3.20;;
11616;SDS011;5864;52.998;9.068;2024-03-25T08:09:18;11.63;;;2.67;;
11616;SDS011;5864;52.998;9.068;2024-03-25T08:11:44;11.50;;;2.70;;
11616;SDS011;5864;52.998;9.068;2024-03-25T08:14:10;9.07;;;2.70;;
11616;SDS011;5864;52.998;9.068;2024-03-25T08:16:37;9.70;;;3.00;;
11616;SDS011;5864;52.998;9.068;2024-03-25T08:19:04;11.10;;;3.27;;
11616;SDS011;5864;52.998;9.068;2024-03-25T08:21:30;8.90;;;2.37;;
11616;SDS011;5864;52.998;9.068;2024-03-25T08:23:57;8.43;;;2.60;;
11616;SDS011;5864;52.998;9.068;2024-03-25T08:26:23;7.43;;;2.53;;
11616;SDS011;5864;52.998;9.068;2024-03-25T08:28:51;11.43;;;3.20;;
11616;SDS011;5864;52.998;9.068;2024-03-25T08:31:17;9.80;;;2.47;;
11616;SDS011;5864;52.998;9.068;2024-03-25T08:33:43;14.37;;;2.97;;
11616;SDS011;5864;52.998;9.068;2024-03-25T08:36:09;8.63;;;2.90;;
11616;SDS011;5864;52.998;9.068;2024-03-25T08:38:35;8.07;;;2.77;;
11616;SDS011;5864;52.998;9.068;2024-03-25T08:41:03;10.47;;;3.03;;
11616;SDS011;5864;52.998;9.068;2024-03-25T08:43:29;8.57;;;2.73;;
11616;SDS011;5864;52.998;9.068;2024-03-25T08:45:55;11.90;;;2.90;;
11616;SDS011;5864;52.998;9.068;2024-03-25T08:48:22;10.23;;;2.50;;
11616;SDS011;5864;52.998;9.068;2024-03-25T08:50:48;8.00;;;2.57;;
11616;SDS011;5864;52.998;9.068;2024-03-25T08:53:14;5.53;;;2.03;;
11616;SDS011;5864;52.998;9.068;2024-03-25T08:55:43;11.87;;;3.13;;
11616;SDS011;5864;52.998;9.068;2024-03-25T08:58:12;9.87;;;2.20;;
11616;SDS011;5864;52.998;9.068;2024-03-25T09:00:38;8.77;;;2.67;;
11616;SDS011;5864;52.998;9.068;2024-03-25T09:03:04;8.87;;;2.40;;
11616;SDS011;5864;52.998;9.068;2024-03-25T09:05:30;8.93;;;2.57;;
11616;SDS011;5864;52.998;9.068;2024-03-25T09:07:57;9.67;;;2.60;;
11616;SDS011;5864;52.998;9.068;2024-03-25T09:10:23;8.63;;;2.27;;
11616;SDS011;5864;52.998;9.068;2024-03-25T09:13:08;11.43;;;3.10;;
11616;SDS011;5864;52.998;9.068;2024-03-25T09:15:35;10.03;;;2.80;;
11616;SDS011;5864;52.998;9.068;2024-03-25T09:18:01;12.50;;;2.93;;
11616;SDS011;5864;52.998;9.068;2024-03-25T09:20:28;10.03;;;2.40;;
11616;SDS011;5864;52.998;9.068;2024-03-25T09:22:54;10.67;;;3.10;;
11616;SDS011;5864;52.998;9.068;2024-03-25T09:25:20;13.27;;;3.67;;
11616;SDS011;5864;52.998;9.068;2024-03-25T09:27:46;10.90;;;3.20;;
11616;SDS011;5864;52.998;9.068;2024-03-25T09:30:12;10.03;;;3.10;;
11616;SDS011;5864;52.998;9.068;2024-03-25T09:32:40;7.90;;;2.13;;
11616;SDS011;5864;52.998;9.068;2024-03-25T09:35:07;9.87;;;2.40;;
11616;SDS011;5864;52.998;9.068;2024-03-25T09:37:33;11.63;;;2.53;;
11616;SDS011;5864;52.998;9.068;2024-03-25T09:39:59;10.73;;;2.63;;
11616;SDS011;5864;52.998;9.068;2024-03-25T09:42:25;9.00;;;2.43;;
11616;SDS011;5864;52.998;9.068;2024-03-25T09:44:53;9.53;;;2.90;;
11616;SDS011;5864;52.998;9.068;2024-03-25T09:47:20;10.13;;;2.60;;
11616;SDS011;5864;52.998;9.068;2024-03-25T09:49:48;13.17;;;2.77;;
11616;SDS011;5864;52.998;9.068;2024-03-25T09:52:14;8.03;;;2.57;;
11616;SDS011;5864;52.998;9.068;2024-03-25T09:54:40;9.50;;;2.57;;
11616;SDS011;5864;52.998;9.068;2024-03-25T09:57:06;9.20;;;2.47;;
11616;SDS011;5864;52.998;9.068;2024-03-25T09:59:34;10.93;;;2.83;;
11616;SDS011;5864;52.998;9.068;2024-03-25T10:02:00;9.77;;;2.60;;
11616;SDS011;5864;52.998;9.068;2024-03-25T10:04:27;12.00;;;2.50;;
11616;SDS011;5864;52.998;9.068;2024-03-25T10:06:55;4.73;;;1.90;;
11616;SDS011;5864;52.998;9.068;2024-03-25T10:09:21;5.50;;;2.00;;
11616;SDS011;5864;52.998;9.068;2024-03-25T10:11:48;7.87;;;2.50;;
11616;SDS011;5864;52.998;9.068;2024-03-25T10:14:14;6.13;;;2.33;;
11616;SDS011;5864;52.998;9.068;2024-03-25T10:16:41;8.80;;;2.33;;
11616;SDS011;5864;52.998;9.068;2024-03-25T10:19:08;7.13;;;2.40;;
11616;SDS011;5864;52.998;9.068;2024-03-25T10:21:34;5.17;;;2.00;;
11616;SDS011;5864;52.998;9.068;2024-03-25T10:24:01;7.03;;;2.47;;
11616;SDS011;5864;52.998;9.068;2024-03-25T10:26:30;9.37;;;2.20;;
11616;SDS011;5864;52.998;9.068;2024-03-25T10:29:01;4.97;;;2.13;;
11616;SDS011;5864;52.998;9.068;2024-03-25T10:31:28;7.60;;;1.73;;
11616;SDS011;5864;52.998;9.068;2024-03-25T10:33:56;6.80;;;2.10;;
11616;SDS011;5864;52.998;9.068;2024-03-25T10:36:23;7.90;;;2.73;;
11616;SDS011;5864;52.998;9.068;2024-03-25T10:38:52;6.87;;;2.10;;
11616;SDS011;5864;52.998;9.068;2024-03-25T10:41:22;5.57;;;2.17;;
11616;SDS011;5864;52.998;9.068;2024-03-25T10:43:48;9.57;;;2.60;;
11616;SDS011;5864;52.998;9.068;2024-03-25T10:46:16;8.20;;;2.23;;
11616;SDS011;5864;52.998;9.068;2024-03-25T10:48:47;6.87;;;2.00;;
11616;SDS011;5864;52.998;9.068;2024-03-25T10:51:22;8.23;;;2.53;;
11616;SDS011;5864;52.998;9.068;2024-03-25T10:53:49;7.37;;;1.93;;
11616;SDS011;5864;52.998;9.068;2024-03-25T10:56:19;11.63;;;2.50;;
11616;SDS011;5864;52.998;9.068;2024-03-25T10:58:48;9.33;;;2.10;;
11616;SDS011;5864;52.998;9.068;2024-03-25T11:01:14;5.40;;;2.10;;
11616;SDS011;5864;52.998;9.068;2024-03-25T11:03:43;8.13;;;1.93;;
11616;SDS011;5864;52.998;9.068;2024-03-25T11:06:10;8.77;;;2.93;;
11616;SDS011;5864;52.998;9.068;2024-03-25T11:08:36;8.50;;;2.27;;
11616;SDS011;5864;52.998;9.068;2024-03-25T11:11:02;6.60;;;2.20;;
11616;SDS011;5864;52.998;9.068;2024-03-25T11:13:30;7.20;;;1.97;;
11616;SDS011;5864;52.998;9.068;2024-03-25T11:15:57;7.73;;;1.90;;
11616;SDS011;5864;52.998;9.068;2024-03-25T11:18:24;7.80;;;1.93;;
11616;SDS011;5864;52.998;9.068;2024-03-25T11:21:01;7.30;;;2.27;;
11616;SDS011;5864;52.998;9.068;2024-03-25T11:23:34;8.20;;;2.50;;
11616;SDS011;5864;52.998;9.068;2024-03-25T11:26:01;8.40;;;2.07;;
11616;SDS011;5864;52.998;9.068;2024-03-25T11:28:27;7.27;;;2.30;;
11616;SDS011;5864;52.998;9.068;2024-03-25T11:30:55;9.97;;;2.50;;
11616;SDS011;5864;52.998;9.068;2024-03-25T11:33:21;10.57;;;2.13;;
11616;SDS011;5864;52.998;9.068;2024-03-25T11:35:47;9.67;;;2.43;;
11616;SDS011;5864;52.998;9.068;2024-03-25T11:38:14;8.73;;;2.50;;
11616;SDS011;5864;52.998;9.068;2024-03-25T11:40:41;11.03;;;2.70;;
11616;SDS011;5864;52.998;9.068;2024-03-25T11:43:09;5.33;;;1.90;;
11616;SDS011;5864;52.998;9.068;2024-03-25T11:45:46;6.13;;;2.23;;
11616;SDS011;5864;52.998;9.068;2024-03-25T11:48:13;7.17;;;2.30;;
11616;SDS011;5864;52.998;9.068;2024-03-25T11:50:40;5.03;;;1.83;;
11616;SDS011;5864;52.998;9.068;2024-03-25T11:53:06;8.67;;;1.97;;
11616;SDS011;5864;52.998;9.068;2024-03-25T11:55:33;6.43;;;2.30;;
11616;SDS011;5864;52.998;9.068;2024-03-25T11:57:59;5.33;;;1.80;;
11616;SDS011;5864;52.998;9.068;2024-03-25T12:00:25;6.37;;;2.10;;
11616;SDS011;5864;52.998;9.068;2024-03-25T12:02:52;7.07;;;2.00;;
11616;SDS011;5864;52.998;9.068;2024-03-25T12:05:19;6.87;;;1.97;;
11616;SDS011;5864;52.998;9.068;2024-03-25T12:07:45;7.23;;;1.97;;
11616;SDS011;5864;52.998;9.068;2024-03-25T12:10:12;5.60;;;1.90;;
11616;SDS011;5864;52.998;9.068;2024-03-25T12:12:56;6.83;;;2.37;;
11616;SDS011;5864;52.998;9.068;2024-03-25T12:15:22;5.30;;;2.20;;
11616;SDS011;5864;52.998;9.068;2024-03-25T12:17:49;8.80;;;2.17;;
11616;SDS011;5864;52.998;9.068;2024-03-25T12:20:17;4.97;;;1.93;;
11616;SDS011;5864;52.998;9.068;2024-03-25T12:22:44;6.53;;;2.30;;
11616;SDS011;5864;52.998;9.068;2024-03-25T12:25:10;5.63;;;1.97;;
11616;SDS011;5864;52.998;9.068;2024-03-25T12:27:37;6.33;;;2.10;;
11616;SDS011;5864;52.998;9.068;2024-03-25T12:30:05;6.77;;;2.73;;
11616;SDS011;5864;52.998;9.068;2024-03-25T12:32:36;7.60;;;2.20;;
11616;SDS011;5864;52.998;9.068;2024-03-25T12:35:02;4.87;;;2.13;;
11616;SDS011;5864;52.998;9.068;2024-03-25T12:37:33;8.03;;;2.20;;
11616;SDS011;5864;52.998;9.068;2024-03-25T12:40:01;4.87;;;1.87;;
11616;SDS011;5864;52.998;9.068;2024-03-25T12:42:27;4.03;;;1.70;;
11616;SDS011;5864;52.998;9.068;2024-03-25T12:44:53;8.07;;;2.20;;
11616;SDS011;5864;52.998;9.068;2024-03-25T12:47:19;4.73;;;1.70;;
11616;SDS011;5864;52.998;9.068;2024-03-25T12:49:45;7.23;;;1.93;;
11616;SDS011;5864;52.998;9.068;2024-03-25T12:52:11;3.43;;;1.73;;
11616;SDS011;5864;52.998;9.068;2024-03-25T12:54:39;6.73;;;1.87;;
11616;SDS011;5864;52.998;9.068;2024-03-25T12:57:05;6.07;;;2.00;;
11616;SDS011;5864;52.998;9.068;2024-03-25T12:59:31;6.10;;;1.93;;
11616;SDS011;5864;52.998;9.068;2024-03-25T13:01:58;4.67;;;1.80;;
11616;SDS011;5864;52.998;9.068;2024-03-25T13:04:25;4.73;;;1.90;;
11616;SDS011;5864;52.998;9.068;2024-03-25T13:06:51;6.30;;;2.07;;
11616;SDS011;5864;52.998;9.068;2024-03-25T13:09:18;5.07;;;2.30;;
11616;SDS011;5864;52.998;9.068;2024-03-25T13:11:46;5.27;;;2.10;;
11616;SDS011;5864;52.998;9.068;2024-03-25T13:14:12;4.73;;;2.17;;
11616;SDS011;5864;52.998;9.068;2024-03-25T13:16:38;6.23;;;2.40;;
11616;SDS011;5864;52.998;9.068;2024-03-25T13:19:06;7.67;;;2.27;;
11616;SDS011;5864;52.998;9.068;2024-03-25T13:21:32;5.30;;;2.47;;
11616;SDS011;5864;52.998;9.068;2024-03-25T13:23:58;8.23;;;2.40;;
11616;SDS011;5864;52.998;9.068;2024-03-25T13:26:24;6.63;;;2.13;;
11616;SDS011;5864;52.998;9.068;2024-03-25T13:28:52;6.60;;;2.43;;
11616;SDS011;5864;52.998;9.068;2024-03-25T13:31:18;5.90;;;2.20;;
11616;SDS011;5864;52.998;9.068;2024-03-25T13:33:44;7.10;;;2.03;;
11616;SDS011;5864;52.998;9.068;2024-03-25T13:36:10;3.73;;;2.00;;
11616;SDS011;5864;52.998;9.068;2024-03-25T13:38:37;3.70;;;1.90;;
11616;SDS011;5864;52.998;9.068;2024-03-25T13:41:03;4.80;;;2.23;;
11616;SDS011;5864;52.998;9.068;2024-03-25T13:43:30;5.07;;;1.90;;
11616;SDS011;5864;52.998;9.068;2024-03-25T13:45:57;4.23;;;1.60;;
11616;SDS011;5864;52.998;9.068;2024-03-25T13:48:24;3.27;;;1.77;;
11616;SDS011;5864;52.998;9.068;2024-03-25T13:50:53;3.67;;;1.50;;
11616;SDS011;5864;52.998;9.068;2024-03-25T13:53:19;3.40;;;1.60;;
11616;SDS011;5864;52.998;9.068;2024-03-25T13:55:45;5.17;;;2.00;;
11616;SDS011;5864;52.998;9.068;2024-03-25T13:58:11;4.33;;;2.03;;
11616;SDS011;5864;52.998;9.068;2024-03-25T14:00:37;6.20;;;1.73;;
11616;SDS011;5864;52.998;9.068;2024-03-25T14:03:05;7.30;;;2.23;;
11616;SDS011;5864;52.998;9.068;2024-03-25T14:05:31;4.13;;;1.97;;
11616;SDS011;5864;52.998;9.068;2024-03-25T14:07:57;5.60;;;1.70;;
11616;SDS011;5864;52.998;9.068;2024-03-25T14:10:24;4.40;;;1.70;;
11616;SDS011;5864;52.998;9.068;2024-03-25T14:12:50;5.03;;;1.70;;
11616;SDS011;5864;52.998;9.068;2024-03-25T14:15:16;3.87;;;1.70;;
11616;SDS011;5864;52.998;9.068;2024-03-25T14:17:42;4.27;;;1.60;;
11616;SDS011;5864;52.998;9.068;2024-03-25T14:20:11;3.77;;;2.03;;
11616;SDS011;5864;52.998;9.068;2024-03-25T14:22:37;4.70;;;1.80;;
11616;SDS011;5864;52.998;9.068;2024-03-25T14:25:03;5.37;;;2.10;;
11616;SDS011;5864;52.998;9.068;2024-03-25T14:27:31;4.60;;;1.97;;
11616;SDS011;5864;52.998;9.068;2024-03-25T14:30:00;3.83;;;1.80;;
11616;SDS011;5864;52.998;9.068;2024-03-25T14:32:26;4.87;;;1.70;;
11616;SDS011;5864;52.998;9.068;2024-03-25T14:34:52;5.17;;;2.00;;
11616;SDS011;5864;52.998;9.068;2024-03-25T14:37:20;4.17;;;1.67;;
11616;SDS011;5864;52.998;9.068;2024-03-25T14:39:46;5.70;;;1.90;;
11616;SDS011;5864;52.998;9.068;2024-03-25T14:42:12;5.53;;;1.70;;
11616;SDS011;5864;52.998;9.068;2024-03-25T14:44:38;4.97;;;1.83;;
11616;SDS011;5864;52.998;9.068;2024-03-25T14:47:04;4.63;;;1.80;;
11616;SDS011;5864;52.998;9.068;2024-03-25T14:49:30;4.50;;;1.87;;
11616;SDS011;5864;52.998;9.068;2024-03-25T14:51:57;4.73;;;1.73;;
11616;SDS011;5864;52.998;9.068;2024-03-25T14:54:24;3.87;;;1.63;;
11616;SDS011;5864;52.998;9.068;2024-03-25T14:56:59;4.37;;;1.50;;